createdAt,value
2018-08-23T00:01:28.462Z,75.97
2018-08-23T00:04:02.687Z,76.11
2018-08-23T00:06:32.084Z,76.03
2018-08-23T00:09:01.175Z,76.35
2018-08-23T00:11:32.808Z,76.76
2018-08-23T00:14:05.724Z,76.85
2018-08-23T00:16:50.093Z,77.31
2018-08-23T00:19:19.034Z,77.29
2018-08-23T00:21:49.693Z,76.09
2018-08-23T00:24:20.960Z,75.46
2018-08-23T00:26:58.221Z,76.23
2018-08-23T00:29:28.838Z,75.80
2018-08-23T00:32:02.963Z,76.25
2018-08-23T00:34:36.835Z,76.99
2018-08-23T00:37:05.957Z,75.68
2018-08-23T00:39:34.951Z,75.87
2018-08-23T00:42:06.400Z,76.00
2018-08-23T00:44:50.528Z,75.29
2018-08-23T00:47:19.085Z,75.20
2018-08-23T00:49:47.535Z,76.28
2018-08-23T00:52:18.669Z,77.49
2018-08-23T00:54:47.284Z,78.26
2018-08-23T00:57:16.040Z,78.15
2018-08-23T00:59:50.538Z,78.66
2018-08-23T01:02:19.858Z,78.69
2018-08-23T01:04:49.268Z,77.51
2018-08-23T01:07:27.058Z,77.55
2018-08-23T01:09:57.029Z,77.09
2018-08-23T01:12:27.024Z,77.79
2018-08-23T01:14:55.387Z,78.18
2018-08-23T01:17:24.104Z,79.02
2018-08-23T01:20:00.549Z,78.31
2018-08-23T01:22:29.656Z,79.09
2018-08-23T01:25:00.644Z,77.60
2018-08-23T01:27:34.699Z,77.23
2018-08-23T01:30:05.651Z,76.43
2018-08-23T01:32:34.252Z,77.27
2018-08-23T01:35:02.669Z,77.95
2018-08-23T01:37:38.161Z,78.01
2018-08-23T01:40:09.043Z,77.81
2018-08-23T01:42:40.360Z,77.61
2018-08-23T01:45:10.849Z,78.07
2018-08-23T01:47:44.209Z,77.53
2018-08-23T01:50:14.871Z,77.18
2018-08-23T01:52:44.563Z,76.86
2018-08-23T01:55:16.332Z,77.46
2018-08-23T01:57:45.552Z,77.33
2018-08-23T02:00:23.475Z,76.88
2018-08-23T02:02:54.231Z,78.34
2018-08-23T02:05:24.119Z,78.83
2018-08-23T02:07:53.051Z,79.15
2018-08-23T02:10:22.489Z,78.67
2018-08-23T02:12:54.599Z,78.71
2018-08-23T02:15:24.055Z,78.80
2018-08-23T02:17:56.360Z,78.10
2018-08-23T02:20:27.200Z,77.95
2018-08-23T02:22:56.730Z,78.37
2018-08-23T02:25:25.413Z,77.93
2018-08-23T02:28:03.175Z,78.45
2018-08-23T02:30:53.025Z,77.80
2018-08-23T02:33:21.407Z,77.95
2018-08-23T02:36:00.932Z,78.74
2018-08-23T02:38:30.279Z,79.76
2018-08-23T02:40:59.672Z,78.97
2018-08-23T02:43:28.035Z,79.97
2018-08-23T02:45:56.396Z,79.84
2018-08-23T02:48:27.033Z,80.33
2018-08-23T02:50:56.196Z,80.55
2018-08-23T02:53:41.992Z,81.44
2018-08-23T02:56:21.136Z,81.70
2018-08-23T02:58:59.572Z,80.79
2018-08-23T03:01:33.468Z,79.26
2018-08-23T03:04:21.227Z,78.62
2018-08-23T03:06:53.570Z,78.90
2018-08-23T03:09:24.787Z,79.25
2018-08-23T03:11:54.651Z,78.70
2018-08-23T03:14:28.964Z,79.12
2018-08-23T03:17:22.033Z,78.86
2018-08-23T03:20:06.522Z,78.74
2018-08-23T03:22:36.632Z,78.26
2018-08-23T03:25:08.739Z,79.21
2018-08-23T03:27:37.718Z,80.04
2018-08-23T03:30:07.884Z,79.94
2018-08-23T03:32:36.315Z,80.21
2018-08-23T03:35:06.419Z,79.44
2018-08-23T03:37:36.284Z,79.76
2018-08-23T03:40:05.771Z,80.24
2018-08-23T03:42:41.024Z,79.68
2018-08-23T03:45:17.152Z,80.06
2018-08-23T03:47:52.740Z,79.48
2018-08-23T03:50:22.032Z,79.21
2018-08-23T03:52:55.226Z,79.39
2018-08-23T03:55:26.580Z,79.76
2018-08-23T03:58:01.617Z,80.35
2018-08-23T04:00:35.208Z,80.49
2018-08-23T04:03:10.164Z,80.21
2018-08-23T04:05:40.514Z,79.96
2018-08-23T04:08:09.116Z,80.10
2018-08-23T04:10:38.280Z,81.69
2018-08-23T04:13:07.624Z,80.58
2018-08-23T04:15:36.604Z,80.90
2018-08-23T04:18:17.133Z,82.32
2018-08-23T04:20:53.901Z,80.70
2018-08-23T04:23:22.205Z,80.51
2018-08-23T04:25:50.655Z,80.61
2018-08-23T04:28:19.040Z,80.24
2018-08-23T04:30:49.037Z,79.60
2018-08-23T04:33:17.380Z,78.87
2018-08-23T04:35:46.689Z,79.73
2018-08-23T04:38:18.753Z,81.98
2018-08-23T04:40:57.024Z,81.42
2018-08-23T04:43:26.179Z,80.73
2018-08-23T04:45:55.608Z,81.50
2018-08-23T04:48:24.479Z,81.93
2018-08-23T04:50:53.357Z,81.46
2018-08-23T04:53:23.020Z,81.01
2018-08-23T04:55:54.001Z,81.50
2018-08-23T04:58:23.631Z,81.21
2018-08-23T05:00:55.036Z,81.02
2018-08-23T05:03:24.839Z,81.84
2018-08-23T05:05:54.951Z,82.96
2018-08-23T05:08:23.840Z,83.77
2018-08-23T05:10:52.808Z,83.58
2018-08-23T05:13:22.179Z,82.91
2018-08-23T05:15:52.017Z,83.51
2018-08-23T05:18:21.592Z,81.66
2018-08-23T05:20:50.525Z,81.17
2018-08-23T05:23:21.021Z,81.23
2018-08-23T05:25:50.754Z,80.20
2018-08-23T05:28:20.898Z,80.07
2018-08-23T05:30:51.243Z,79.48
2018-08-23T05:33:21.748Z,78.53
2018-08-23T05:35:52.251Z,77.32
2018-08-23T05:38:21.816Z,76.83
2018-08-23T05:41:03.784Z,76.36
2018-08-23T05:43:35.774Z,75.85
2018-08-23T05:46:05.523Z,75.91
2018-08-23T05:48:34.641Z,76.60
2018-08-23T05:51:10.950Z,77.85
2018-08-23T05:53:43.775Z,77.00
2018-08-23T05:56:13.912Z,74.28
2018-08-23T05:58:47.540Z,71.92
2018-08-23T06:01:17.866Z,68.84
2018-08-23T06:03:46.752Z,70.85
2018-08-23T06:06:15.224Z,69.88
2018-08-23T06:08:50.969Z,67.65
2018-08-23T06:11:21.565Z,68.37
2018-08-23T06:13:51.933Z,65.07
2018-08-23T06:16:22.708Z,66.05
2018-08-23T06:18:54.345Z,63.74
2018-08-23T06:21:22.988Z,58.82
2018-08-23T06:24:01.520Z,64.85
2018-08-23T06:26:42.816Z,70.08
2018-08-23T06:29:22.581Z,69.64
2018-08-23T06:32:00.572Z,70.11
2018-08-23T06:34:34.837Z,63.97
2018-08-23T06:37:08.772Z,65.05
2018-08-23T06:39:39.128Z,66.41
2018-08-23T06:42:08.896Z,64.78
2018-08-23T06:44:44.795Z,63.34
2018-08-23T06:47:15.733Z,69.10
2018-08-23T06:49:45.137Z,69.66
2018-08-23T06:52:16.144Z,68.92
2018-08-23T06:54:46.781Z,69.61
2018-08-23T06:57:16.366Z,65.67
2018-08-23T06:59:46.928Z,63.86
2018-08-23T07:02:15.248Z,67.37
2018-08-23T07:04:45.812Z,64.08
2018-08-23T07:07:18.103Z,63.25
2018-08-23T07:09:48.279Z,61.65
2018-08-23T07:12:19.015Z,63.13
2018-08-23T07:14:49.317Z,63.71
2018-08-23T07:17:23.318Z,61.21
2018-08-23T07:19:53.172Z,60.61
2018-08-23T07:22:25.137Z,61.12
2018-08-23T07:24:58.376Z,61.35
2018-08-23T07:27:30.884Z,59.45
2018-08-23T07:30:00.691Z,58.83
2018-08-23T07:32:30.896Z,60.59
2018-08-23T07:35:09.644Z,61.22
2018-08-23T07:37:40.360Z,59.79
2018-08-23T07:40:16.137Z,60.43
2018-08-23T07:42:49.300Z,60.09
2018-08-23T07:45:17.680Z,59.44
2018-08-23T07:47:53.378Z,58.19
2018-08-23T07:50:21.744Z,58.08
2018-08-23T07:52:53.025Z,57.19
2018-08-23T07:55:22.060Z,55.57
2018-08-23T07:57:50.400Z,51.82
2018-08-23T08:00:47.048Z,51.90
2018-08-23T08:03:20.112Z,52.40
2018-08-23T08:05:49.713Z,52.65
2018-08-23T08:08:18.976Z,52.84
2018-08-23T08:10:48.044Z,48.65
2018-08-23T08:13:16.645Z,50.58
2018-08-23T08:15:46.546Z,50.72
2018-08-23T08:18:22.716Z,53.60
2018-08-23T08:20:58.854Z,50.46
2018-08-23T08:23:29.784Z,49.47
2018-08-23T08:25:59.753Z,48.19
2018-08-23T08:28:29.665Z,50.19
2018-08-23T08:30:59.786Z,46.73
2018-08-23T08:33:35.806Z,48.00
2018-08-23T08:36:06.918Z,48.15
2018-08-23T08:38:37.266Z,48.94
2018-08-23T08:41:08.623Z,47.22
2018-08-23T08:43:38.839Z,46.98
2018-08-23T08:46:07.912Z,45.26
2018-08-23T08:48:37.034Z,46.20
2018-08-23T08:51:26.304Z,44.86
2018-08-23T08:53:58.244Z,40.56
2018-08-23T08:56:39.426Z,41.13
2018-08-23T08:59:10.133Z,40.90
2018-08-23T09:01:38.781Z,42.95
2018-08-23T09:04:07.705Z,39.56
2018-08-23T09:06:42.763Z,40.70
2018-08-23T09:09:24.095Z,38.21
2018-08-23T09:11:53.485Z,40.79
2018-08-23T09:14:23.004Z,36.88
2018-08-23T09:16:52.765Z,35.46
2018-08-23T09:19:22.067Z,35.73
2018-08-23T09:22:01.919Z,36.36
2018-08-23T09:24:30.538Z,38.52
2018-08-23T09:26:58.896Z,38.08
2018-08-23T09:29:37.442Z,38.25
2018-08-23T09:32:21.200Z,38.83
2018-08-23T09:34:50.284Z,38.18
2018-08-23T09:37:19.067Z,38.54
2018-08-23T09:39:49.094Z,37.86
2018-08-23T09:42:20.453Z,39.11
2018-08-23T09:45:01.254Z,38.36
2018-08-23T09:47:31.128Z,37.01
2018-08-23T09:50:00.635Z,37.42
2018-08-23T09:52:35.061Z,37.29
2018-08-23T09:55:04.656Z,37.59
2018-08-23T09:57:33.764Z,38.59
2018-08-23T10:00:02.084Z,38.33
2018-08-23T10:02:39.260Z,38.63
2018-08-23T10:05:13.144Z,37.28
2018-08-23T10:07:46.945Z,37.17
2018-08-23T10:10:22.489Z,37.50
2018-08-23T10:12:57.219Z,36.46
2018-08-23T10:15:30.665Z,35.80
2018-08-23T10:18:05.695Z,36.03
2018-08-23T10:20:49.227Z,35.96
2018-08-23T10:23:23.592Z,35.45
2018-08-23T10:25:54.040Z,37.14
2018-08-23T10:28:28.711Z,34.83
2018-08-23T10:30:59.001Z,34.44
2018-08-23T10:33:27.809Z,34.98
2018-08-23T10:35:57.870Z,35.50
2018-08-23T10:38:29.108Z,34.65
2018-08-23T10:41:02.672Z,35.70
2018-08-23T10:43:38.721Z,34.46
2018-08-23T10:46:07.832Z,34.63
2018-08-23T10:48:38.820Z,35.23
2018-08-23T10:51:07.182Z,33.04
2018-08-23T10:53:36.378Z,35.10
2018-08-23T10:56:05.331Z,34.97
2018-08-23T10:58:35.527Z,35.04
2018-08-23T11:01:04.837Z,34.28
2018-08-23T11:03:34.408Z,33.47
2018-08-23T11:06:03.166Z,35.91
2018-08-23T11:08:34.744Z,37.21
2018-08-23T11:11:09.301Z,36.50
2018-08-23T11:13:46.447Z,33.96
2018-08-23T11:16:21.603Z,36.00
2018-08-23T11:18:56.397Z,34.54
2018-08-23T11:21:25.780Z,34.63
2018-08-23T11:23:59.106Z,32.81
2018-08-23T11:26:29.331Z,33.95
2018-08-23T11:29:00.089Z,35.40
2018-08-23T11:31:31.950Z,34.99
2018-08-23T11:34:02.176Z,35.92
2018-08-23T11:36:32.067Z,34.58
2018-08-23T11:39:01.569Z,35.21
2018-08-23T11:41:29.925Z,32.61
2018-08-23T11:44:02.495Z,32.74
2018-08-23T11:46:30.897Z,33.42
2018-08-23T11:49:02.011Z,34.19
2018-08-23T11:51:36.444Z,32.59
2018-08-23T11:54:05.767Z,31.74
2018-08-23T11:56:35.142Z,32.37
2018-08-23T11:59:03.885Z,32.04
2018-08-23T12:01:33.261Z,34.36
2018-08-23T12:04:04.611Z,32.89
2018-08-23T12:06:35.176Z,31.37
2018-08-23T12:09:05.704Z,31.74
2018-08-23T12:11:34.887Z,31.32
2018-08-23T12:14:03.762Z,30.86
2018-08-23T12:16:34.444Z,31.66
2018-08-23T12:19:05.069Z,32.99
2018-08-23T12:21:35.452Z,32.38
2018-08-23T12:24:05.269Z,33.02
2018-08-23T12:26:34.581Z,33.27
2018-08-23T12:29:09.792Z,33.27
2018-08-23T12:31:38.823Z,34.38
2018-08-23T12:34:09.460Z,33.18
2018-08-23T12:36:43.956Z,33.46
2018-08-23T12:39:18.087Z,31.83
2018-08-23T12:41:52.560Z,31.85
2018-08-23T12:44:22.404Z,31.06
2018-08-23T12:46:56.424Z,33.35
2018-08-23T12:49:26.991Z,33.17
2018-08-23T12:51:55.265Z,34.75
2018-08-23T12:54:24.916Z,35.17
2018-08-23T12:56:53.908Z,35.47
2018-08-23T12:59:23.124Z,35.10
2018-08-23T13:01:52.499Z,32.87
2018-08-23T13:04:22.942Z,33.15
2018-08-23T13:06:52.932Z,32.78
2018-08-23T13:09:23.000Z,31.36
2018-08-23T13:11:56.830Z,31.99
2018-08-23T13:14:26.425Z,32.69
2018-08-23T13:16:58.655Z,32.66
2018-08-23T13:19:27.409Z,32.37
2018-08-23T13:22:03.332Z,34.44
2018-08-23T13:24:35.175Z,34.31
2018-08-23T13:27:06.389Z,33.56
2018-08-23T13:29:35.384Z,32.99
2018-08-23T13:32:03.947Z,33.84
2018-08-23T13:34:34.543Z,34.81
2018-08-23T13:37:06.616Z,32.79
2018-08-23T13:39:36.168Z,32.35
2018-08-23T13:42:05.114Z,32.49
2018-08-23T13:44:39.044Z,30.23
2018-08-23T13:47:10.401Z,31.15
2018-08-23T13:49:39.999Z,31.12
2018-08-23T13:52:10.137Z,30.87
2018-08-23T13:54:42.359Z,31.24
2018-08-23T13:57:13.452Z,31.68
2018-08-23T13:59:42.792Z,32.79
2018-08-23T14:02:11.870Z,33.04
2018-08-23T14:04:44.121Z,33.38
2018-08-23T14:07:15.793Z,32.89
2018-08-23T14:09:44.752Z,32.95
2018-08-23T14:12:17.569Z,32.48
2018-08-23T14:14:46.772Z,33.30
2018-08-23T14:17:15.631Z,32.98
2018-08-23T14:19:45.204Z,34.08
2018-08-23T14:22:13.874Z,34.44
2018-08-23T14:24:42.244Z,34.21
2018-08-23T14:27:11.812Z,34.09
2018-08-23T14:29:41.604Z,35.25
2018-08-23T14:32:13.004Z,34.49
2018-08-23T14:34:43.912Z,34.61
2018-08-23T14:37:14.684Z,33.78
2018-08-23T14:39:43.521Z,33.43
2018-08-23T14:42:12.640Z,33.35
2018-08-23T14:44:42.762Z,33.70
2018-08-23T14:47:16.237Z,32.72
2018-08-23T14:49:46.011Z,33.88
2018-08-23T14:52:14.581Z,32.67
2018-08-23T14:54:44.088Z,33.37
2018-08-23T14:57:18.640Z,33.87
2018-08-23T14:59:48.102Z,33.89
2018-08-23T15:02:19.343Z,34.07
2018-08-23T15:04:49.975Z,34.80
2018-08-23T15:07:23.047Z,34.48
2018-08-23T15:09:52.705Z,34.72
2018-08-23T15:12:22.851Z,33.29
2018-08-23T15:14:52.696Z,33.65
2018-08-23T15:17:22.060Z,34.40
2018-08-23T15:19:50.752Z,34.17
2018-08-23T15:22:19.156Z,34.15
2018-08-23T15:24:49.464Z,34.65
2018-08-23T15:27:19.391Z,34.13
2018-08-23T15:29:49.821Z,34.19
2018-08-23T15:32:19.680Z,33.95
2018-08-23T15:34:49.275Z,35.10
2018-08-23T15:37:19.780Z,35.64
2018-08-23T15:39:49.813Z,35.01
2018-08-23T15:42:18.747Z,35.97
2018-08-23T15:44:48.232Z,36.22
2018-08-23T15:47:16.577Z,35.75
2018-08-23T15:49:45.009Z,35.72
2018-08-23T15:52:14.888Z,36.19
2018-08-23T15:54:44.081Z,36.72
2018-08-23T15:57:15.918Z,37.09
2018-08-23T15:59:45.465Z,36.29
2018-08-23T16:02:15.318Z,37.28
2018-08-23T16:04:45.146Z,37.54
2018-08-23T16:07:13.924Z,37.55
2018-08-23T16:09:44.187Z,37.42
2018-08-23T16:12:14.057Z,37.72
2018-08-23T16:14:43.389Z,37.64
2018-08-23T16:17:18.506Z,38.59
2018-08-23T16:19:53.048Z,38.64
2018-08-23T16:22:21.412Z,39.37
2018-08-23T16:24:50.752Z,40.30
2018-08-23T16:27:21.136Z,40.41
2018-08-23T16:31:26.707Z,40.30
2018-08-23T16:33:57.408Z,40.90
2018-08-23T16:36:29.025Z,41.91
2018-08-23T16:38:58.220Z,49.99
2018-08-23T16:41:27.352Z,57.54
2018-08-23T16:43:56.733Z,64.42
2018-08-23T16:46:25.259Z,70.13
2018-08-23T16:48:53.576Z,74.43
2018-08-23T16:51:21.933Z,75.65
2018-08-23T16:53:51.077Z,65.32
2018-08-23T16:56:19.721Z,73.46
2018-08-23T16:58:48.072Z,76.75
2018-08-23T17:01:17.078Z,78.45
2018-08-23T17:03:49.554Z,77.30
2018-08-23T17:06:19.608Z,81.49
2018-08-23T17:08:48.124Z,83.28
2018-08-23T17:11:16.566Z,82.98
2018-08-23T17:13:44.908Z,84.36
2018-08-23T17:16:19.548Z,85.81
2018-08-23T17:18:48.174Z,84.94
2018-08-23T17:21:17.815Z,84.28
2018-08-23T17:23:47.374Z,83.52
2018-08-23T17:26:15.879Z,80.59
2018-08-23T17:28:46.181Z,82.61
2018-08-23T17:31:14.622Z,79.92
2018-08-23T17:33:45.504Z,78.31
2018-08-23T17:36:16.405Z,80.22
2018-08-23T17:38:47.027Z,76.60
2018-08-23T17:41:15.348Z,76.23
2018-08-23T17:43:45.831Z,75.99
2018-08-23T17:46:15.386Z,76.65
2018-08-23T17:48:44.640Z,74.51
2018-08-23T17:51:13.154Z,75.93
2018-08-23T17:53:41.641Z,77.03
2018-08-23T17:56:09.985Z,78.26
2018-08-23T17:58:41.661Z,77.70
2018-08-23T18:01:10.973Z,76.33
2018-08-23T18:03:45.314Z,77.92
2018-08-23T18:06:13.791Z,76.71
2018-08-23T18:08:43.508Z,76.25
2018-08-23T18:11:12.139Z,75.57
2018-08-23T18:13:41.298Z,75.60
2018-08-23T18:16:15.013Z,77.95
2018-08-23T18:18:46.329Z,82.93
2018-08-23T18:21:15.025Z,82.34
2018-08-23T18:23:43.450Z,82.45
2018-08-23T18:26:13.065Z,86.47
2018-08-23T18:28:42.747Z,85.27
2018-08-23T18:31:12.244Z,85.95
2018-08-23T18:33:40.592Z,86.14
2018-08-23T18:36:09.228Z,87.09
2018-08-23T18:38:37.675Z,87.29
2018-08-23T18:41:06.467Z,87.50
2018-08-23T18:43:35.071Z,87.52
2018-08-23T18:46:03.447Z,87.39
2018-08-23T18:48:32.637Z,88.14
2018-08-23T18:51:00.982Z,87.11
2018-08-23T18:53:29.437Z,88.45
2018-08-23T18:55:58.973Z,88.71
2018-08-23T18:58:28.460Z,88.38
2018-08-23T19:00:57.556Z,88.43
2018-08-23T19:03:26.716Z,88.03
2018-08-23T19:05:56.191Z,89.19
2018-08-23T19:08:25.124Z,88.76
2018-08-23T19:10:54.200Z,88.26
2018-08-23T19:13:25.610Z,89.08
2018-08-23T19:20:14.193Z,90.65
2018-08-23T19:22:43.691Z,90.42
2018-08-23T19:25:15.873Z,90.94
2018-08-23T19:27:44.188Z,90.15
2018-08-23T19:30:13.210Z,89.39
2018-08-23T19:32:42.705Z,89.82
2018-08-23T19:35:11.481Z,88.48
2018-08-23T19:37:41.492Z,89.51
2018-08-23T19:40:10.218Z,89.18
2018-08-23T19:42:39.320Z,88.71
2018-08-23T19:45:08.377Z,88.65
2018-08-23T19:47:41.897Z,89.19
2018-08-23T19:50:11.095Z,88.25
2018-08-23T19:52:39.708Z,88.88
2018-08-23T19:55:09.848Z,89.01
2018-08-23T19:57:38.799Z,88.69
2018-08-23T20:00:09.043Z,89.21
2018-08-23T20:02:38.084Z,89.42
2018-08-23T20:05:06.587Z,88.43
2018-08-23T20:07:36.645Z,88.31
2018-08-23T20:10:05.436Z,88.95
2018-08-23T20:12:34.255Z,88.04
2018-08-23T20:15:02.593Z,89.01
2018-08-23T20:17:31.251Z,90.16
2018-08-23T20:20:00.263Z,89.48
2018-08-23T20:22:29.667Z,89.46
2018-08-23T20:24:58.523Z,89.50
2018-08-23T20:27:28.211Z,89.80
2018-08-23T20:29:58.007Z,89.44
2018-08-23T20:32:26.435Z,88.40
2018-08-23T20:34:55.296Z,89.69
2018-08-23T20:37:23.638Z,89.51
2018-08-23T20:39:52.399Z,90.10
2018-08-23T20:42:20.962Z,91.12
2018-08-23T20:44:49.815Z,90.63
2018-08-23T20:47:18.141Z,91.41
2018-08-23T20:49:47.384Z,91.06
2018-08-23T20:52:16.164Z,91.91
2018-08-23T20:54:46.307Z,92.31
2018-08-23T20:57:16.206Z,91.66
2018-08-23T20:59:45.593Z,91.79
2018-08-23T21:02:14.595Z,90.77
2018-08-23T21:04:43.547Z,90.31
2018-08-23T21:07:12.459Z,89.52
2018-08-23T21:09:40.829Z,89.12
2018-08-23T21:12:11.800Z,90.61
2018-08-23T21:14:40.106Z,91.31
2018-08-23T21:17:10.515Z,90.22
2018-08-23T21:19:38.876Z,91.02
2018-08-23T21:22:07.848Z,92.18
2018-08-23T21:24:36.770Z,93.01
2018-08-23T21:27:05.552Z,93.31
2018-08-23T21:29:38.601Z,93.06
2018-08-23T21:32:06.948Z,92.36
2018-08-23T21:34:36.913Z,93.02
2018-08-23T21:37:05.888Z,92.20
2018-08-23T21:39:35.750Z,92.51
2018-08-23T21:42:04.735Z,91.40
2018-08-23T21:44:34.059Z,93.15
2018-08-23T21:47:03.007Z,92.25
2018-08-23T21:49:32.710Z,93.16
2018-08-23T21:52:03.273Z,92.32
2018-08-23T21:54:32.284Z,93.01
2018-08-23T21:57:00.669Z,92.19
2018-08-23T21:59:28.998Z,93.00
2018-08-23T22:02:03.268Z,94.12
2018-08-23T22:04:36.296Z,93.85
2018-08-23T22:07:05.408Z,92.78
2018-08-23T22:09:34.259Z,91.17
2018-08-23T22:12:02.987Z,89.63
2018-08-23T22:14:31.852Z,89.50
2018-08-23T22:17:00.893Z,89.63
2018-08-23T22:19:30.016Z,89.35
2018-08-23T22:21:58.379Z,89.75
2018-08-23T22:24:28.167Z,89.70
2018-08-23T22:26:56.601Z,89.30
2018-08-23T22:29:25.150Z,89.43
2018-08-23T22:31:54.100Z,89.67
2018-08-23T22:34:22.464Z,88.97
2018-08-23T22:36:51.609Z,89.06
2018-08-23T22:39:19.917Z,90.19
2018-08-23T22:41:49.884Z,89.89
2018-08-23T22:44:20.054Z,89.63
2018-08-23T22:46:48.348Z,88.75
2018-08-23T22:49:17.391Z,89.58
2018-08-23T22:51:45.745Z,91.18
2018-08-23T22:54:14.836Z,91.37
2018-08-23T22:56:43.508Z,91.40
2018-08-23T22:59:12.736Z,91.86
2018-08-23T23:01:41.642Z,91.67
2018-08-23T23:04:17.093Z,92.67
2018-08-23T23:06:47.943Z,92.48
2018-08-23T23:09:17.256Z,93.00
2018-08-23T23:11:45.708Z,93.72
2018-08-23T23:14:14.101Z,92.67
2018-08-23T23:16:43.082Z,92.25
2018-08-23T23:19:12.337Z,91.74
2018-08-23T23:21:40.656Z,93.00
2018-08-23T23:24:14.176Z,92.35
2018-08-23T23:26:43.199Z,92.82
2018-08-23T23:29:11.552Z,93.23
2018-08-23T23:31:39.869Z,92.69
2018-08-23T23:34:08.224Z,92.31
2018-08-23T23:36:36.568Z,92.61
2018-08-23T23:39:06.764Z,92.73
2018-08-23T23:41:35.083Z,92.09
2018-08-23T23:44:04.285Z,92.28
2018-08-23T23:46:33.550Z,90.98
2018-08-23T23:49:02.207Z,90.98
2018-08-23T23:51:31.364Z,91.26
2018-08-23T23:53:59.850Z,91.55
2018-08-23T23:56:30.262Z,91.16
2018-08-23T23:59:00.762Z,90.62
